Oregon City, Oregon
Current Conditions -  °F | °C
As of 2:53 PM on Sunday 21 Dec 2014 (Local Time) from KUAO Reporting Station
Overcast Overcast  
Wind Chill: 53°   Ceiling: 4600
Heat Index: 53°   Visibility: 10mi
Dew Point: 50°   Wind: 9mph
Humidity: 89%   Direction: 190°S
Pressure: 30.11"   Gusts: NA
Location:  45.34°N, 122.59°W
Report Text: KUAO 212253Z AUTO 19008KT 10SM FEW029 BKN046 OVC060 12/10 A3011 RMK AO2 RAB2158E08B30E50 SLP195 P0001 T01170100
Loading
Personal Weather Stations






























Interactive Weather Map New forecast layout! Learn more

10-Day Weather Forecast

Advertisements
Track Severe Weather on mobile